sensor_id;sensor_type;location;lat;lon;timestamp;P1;durP1;ratioP1;P2;durP2;ratioP2
1024;SDS011;501;48.214;11.350;2023-03-26T00:00:41;1.43;;;0.70;;
1024;SDS011;501;48.214;11.350;2023-03-26T00:03:11;3.30;;;1.23;;
1024;SDS011;501;48.214;11.350;2023-03-26T00:05:38;1.33;;;1.10;;
1024;SDS011;501;48.214;11.350;2023-03-26T00:08:04;2.43;;;1.03;;
1024;SDS011;501;48.214;11.350;2023-03-26T00:10:33;2.60;;;1.20;;
1024;SDS011;501;48.214;11.350;2023-03-26T00:13:00;1.57;;;0.73;;
1024;SDS011;501;48.214;11.350;2023-03-26T00:15:27;4.17;;;0.73;;
1024;SDS011;501;48.214;11.350;2023-03-26T00:17:53;1.63;;;0.80;;
1024;SDS011;501;48.214;11.350;2023-03-26T00:20:20;1.63;;;0.80;;
1024;SDS011;501;48.214;11.350;2023-03-26T00:22:46;4.93;;;0.97;;
1024;SDS011;501;48.214;11.350;2023-03-26T00:25:12;1.90;;;0.90;;
1024;SDS011;501;48.214;11.350;2023-03-26T00:27:38;2.40;;;0.70;;
1024;SDS011;501;48.214;11.350;2023-03-26T00:30:04;0.97;;;0.90;;
1024;SDS011;501;48.214;11.350;2023-03-26T00:32:31;2.73;;;1.03;;
1024;SDS011;501;48.214;11.350;2023-03-26T00:34:57;2.50;;;1.53;;
1024;SDS011;501;48.214;11.350;2023-03-26T00:37:23;1.00;;;0.90;;
1024;SDS011;501;48.214;11.350;2023-03-26T00:39:52;2.40;;;1.10;;
1024;SDS011;501;48.214;11.350;2023-03-26T00:42:18;3.03;;;0.90;;
1024;SDS011;501;48.214;11.350;2023-03-26T00:44:44;3.97;;;1.30;;
1024;SDS011;501;48.214;11.350;2023-03-26T00:47:10;3.00;;;1.07;;
1024;SDS011;501;48.214;11.350;2023-03-26T00:49:37;1.63;;;1.07;;
1024;SDS011;501;48.214;11.350;2023-03-26T00:52:03;1.53;;;1.00;;
1024;SDS011;501;48.214;11.350;2023-03-26T00:54:32;3.93;;;1.10;;
1024;SDS011;501;48.214;11.350;2023-03-26T00:56:58;1.23;;;1.00;;
1024;SDS011;501;48.214;11.350;2023-03-26T00:59:24;1.00;;;0.80;;
1024;SDS011;501;48.214;11.350;2023-03-26T01:01:54;3.90;;;1.30;;
1024;SDS011;501;48.214;11.350;2023-03-26T01:07:00;4.43;;;1.20;;
1024;SDS011;501;48.214;11.350;2023-03-26T01:09:32;2.20;;;1.40;;
1024;SDS011;501;48.214;11.350;2023-03-26T01:12:01;3.43;;;1.10;;
1024;SDS011;501;48.214;11.350;2023-03-26T01:14:29;3.03;;;1.00;;
1024;SDS011;501;48.214;11.350;2023-03-26T01:16:56;1.67;;;1.03;;
1024;SDS011;501;48.214;11.350;2023-03-26T01:22:14;2.97;;;1.40;;
1024;SDS011;501;48.214;11.350;2023-03-26T01:24:42;1.33;;;1.23;;
1024;SDS011;501;48.214;11.350;2023-03-26T01:27:13;1.73;;;0.90;;
1024;SDS011;501;48.214;11.350;2023-03-26T01:40:20;3.17;;;1.50;;
1024;SDS011;501;48.214;11.350;2023-03-26T01:43:05;5.20;;;1.60;;
1024;SDS011;501;48.214;11.350;2023-03-26T01:45:35;3.20;;;1.30;;
1024;SDS011;501;48.214;11.350;2023-03-26T01:48:03;1.40;;;1.07;;
1024;SDS011;501;48.214;11.350;2023-03-26T01:50:31;3.43;;;1.23;;
1024;SDS011;501;48.214;11.350;2023-03-26T01:52:57;1.10;;;1.00;;
1024;SDS011;501;48.214;11.350;2023-03-26T02:00:52;2.20;;;0.97;;
1024;SDS011;501;48.214;11.350;2023-03-26T02:03:30;1.40;;;1.20;;
1024;SDS011;501;48.214;11.350;2023-03-26T02:06:04;1.73;;;1.20;;
1024;SDS011;501;48.214;11.350;2023-03-26T02:09:02;1.53;;;1.40;;
1024;SDS011;501;48.214;11.350;2023-03-26T02:11:30;2.17;;;1.30;;
1024;SDS011;501;48.214;11.350;2023-03-26T02:13:56;4.33;;;1.30;;
1024;SDS011;501;48.214;11.350;2023-03-26T02:16:23;4.83;;;1.40;;
1024;SDS011;501;48.214;11.350;2023-03-26T02:18:48;3.80;;;1.07;;
1024;SDS011;501;48.214;11.350;2023-03-26T02:21:20;3.70;;;1.60;;
1024;SDS011;501;48.214;11.350;2023-03-26T02:23:49;1.80;;;1.30;;
1024;SDS011;501;48.214;11.350;2023-03-26T02:26:22;5.10;;;1.77;;
1024;SDS011;501;48.214;11.350;2023-03-26T02:28:48;4.97;;;1.10;;
1024;SDS011;501;48.214;11.350;2023-03-26T02:31:14;2.57;;;1.17;;
1024;SDS011;501;48.214;11.350;2023-03-26T02:33:41;1.53;;;1.13;;
1024;SDS011;501;48.214;11.350;2023-03-26T02:36:09;5.87;;;1.07;;
1024;SDS011;501;48.214;11.350;2023-03-26T02:38:38;1.50;;;1.20;;
1024;SDS011;501;48.214;11.350;2023-03-26T02:41:03;2.30;;;1.87;;
1024;SDS011;501;48.214;11.350;2023-03-26T02:43:29;3.23;;;1.27;;
1024;SDS011;501;48.214;11.350;2023-03-26T02:45:55;2.20;;;1.50;;
1024;SDS011;501;48.214;11.350;2023-03-26T02:48:21;3.80;;;1.37;;
1024;SDS011;501;48.214;11.350;2023-03-26T02:50:46;4.10;;;1.43;;
1024;SDS011;501;48.214;11.350;2023-03-26T02:53:17;1.80;;;1.00;;
1024;SDS011;501;48.214;11.350;2023-03-26T02:55:43;4.20;;;1.27;;
1024;SDS011;501;48.214;11.350;2023-03-26T02:58:08;3.17;;;1.53;;
1024;SDS011;501;48.214;11.350;2023-03-26T03:00:36;1.70;;;1.10;;
1024;SDS011;501;48.214;11.350;2023-03-26T03:03:02;4.73;;;1.20;;
1024;SDS011;501;48.214;11.350;2023-03-26T03:05:31;2.80;;;1.30;;
1024;SDS011;501;48.214;11.350;2023-03-26T03:07:57;4.70;;;1.40;;
1024;SDS011;501;48.214;11.350;2023-03-26T03:10:26;6.97;;;1.53;;
1024;SDS011;501;48.214;11.350;2023-03-26T03:12:52;2.30;;;1.30;;
1024;SDS011;501;48.214;11.350;2023-03-26T03:15:18;5.17;;;1.50;;
1024;SDS011;501;48.214;11.350;2023-03-26T03:17:44;4.40;;;1.30;;
1024;SDS011;501;48.214;11.350;2023-03-26T03:20:11;3.50;;;1.50;;
1024;SDS011;501;48.214;11.350;2023-03-26T03:22:37;2.27;;;1.40;;
1024;SDS011;501;48.214;11.350;2023-03-26T03:25:03;3.87;;;1.37;;
1024;SDS011;501;48.214;11.350;2023-03-26T03:27:32;4.17;;;1.27;;
1024;SDS011;501;48.214;11.350;2023-03-26T03:29:59;7.00;;;1.70;;
1024;SDS011;501;48.214;11.350;2023-03-26T03:32:24;4.60;;;1.30;;
1024;SDS011;501;48.214;11.350;2023-03-26T03:34:51;3.30;;;1.00;;
1024;SDS011;501;48.214;11.350;2023-03-26T03:37:17;2.87;;;1.00;;
1024;SDS011;501;48.214;11.350;2023-03-26T03:39:43;1.40;;;0.97;;
1024;SDS011;501;48.214;11.350;2023-03-26T03:42:10;1.77;;;1.47;;
1024;SDS011;501;48.214;11.350;2023-03-26T03:44:36;1.33;;;1.07;;
1024;SDS011;501;48.214;11.350;2023-03-26T03:47:02;4.50;;;1.00;;
1024;SDS011;501;48.214;11.350;2023-03-26T03:49:27;5.17;;;1.43;;
1024;SDS011;501;48.214;11.350;2023-03-26T03:51:53;3.70;;;1.53;;
1024;SDS011;501;48.214;11.350;2023-03-26T03:54:19;1.83;;;1.10;;
1024;SDS011;501;48.214;11.350;2023-03-26T03:56:45;1.87;;;1.10;;
1024;SDS011;501;48.214;11.350;2023-03-26T03:59:12;4.20;;;1.60;;
1024;SDS011;501;48.214;11.350;2023-03-26T04:01:39;5.60;;;1.93;;
1024;SDS011;501;48.214;11.350;2023-03-26T04:04:07;3.97;;;1.10;;
1024;SDS011;501;48.214;11.350;2023-03-26T04:06:33;1.70;;;1.30;;
1024;SDS011;501;48.214;11.350;2023-03-26T04:08:59;1.83;;;1.43;;
1024;SDS011;501;48.214;11.350;2023-03-26T04:11:25;3.80;;;1.17;;
1024;SDS011;501;48.214;11.350;2023-03-26T04:13:50;8.00;;;1.23;;
1024;SDS011;501;48.214;11.350;2023-03-26T04:16:16;1.63;;;0.90;;
1024;SDS011;501;48.214;11.350;2023-03-26T04:18:42;6.63;;;1.70;;
1024;SDS011;501;48.214;11.350;2023-03-26T04:21:10;4.00;;;1.80;;
1024;SDS011;501;48.214;11.350;2023-03-26T04:23:36;6.03;;;1.40;;
1024;SDS011;501;48.214;11.350;2023-03-26T04:26:04;2.67;;;1.20;;
1024;SDS011;501;48.214;11.350;2023-03-26T04:30:59;1.87;;;1.27;;
1024;SDS011;501;48.214;11.350;2023-03-26T04:33:28;6.20;;;2.10;;
1024;SDS011;501;48.214;11.350;2023-03-26T04:35:55;2.83;;;1.93;;
1024;SDS011;501;48.214;11.350;2023-03-26T04:38:26;1.33;;;1.10;;
1024;SDS011;501;48.214;11.350;2023-03-26T04:41:04;2.80;;;1.70;;
1024;SDS011;501;48.214;11.350;2023-03-26T04:43:31;4.90;;;0.97;;
1024;SDS011;501;48.214;11.350;2023-03-26T04:45:59;2.67;;;1.43;;
1024;SDS011;501;48.214;11.350;2023-03-26T04:48:27;3.87;;;1.07;;
1024;SDS011;501;48.214;11.350;2023-03-26T04:50:54;3.23;;;1.37;;
1024;SDS011;501;48.214;11.350;2023-03-26T04:53:20;4.00;;;1.23;;
1024;SDS011;501;48.214;11.350;2023-03-26T04:55:56;3.30;;;1.17;;
1024;SDS011;501;48.214;11.350;2023-03-26T04:58:27;2.03;;;1.30;;
1024;SDS011;501;48.214;11.350;2023-03-26T05:00:58;2.93;;;1.13;;
1024;SDS011;501;48.214;11.350;2023-03-26T05:03:24;1.93;;;1.10;;
1024;SDS011;501;48.214;11.350;2023-03-26T05:05:55;2.33;;;1.17;;
1024;SDS011;501;48.214;11.350;2023-03-26T05:08:23;2.83;;;1.33;;
1024;SDS011;501;48.214;11.350;2023-03-26T05:10:48;3.00;;;1.47;;
1024;SDS011;501;48.214;11.350;2023-03-26T05:13:14;1.23;;;1.00;;
1024;SDS011;501;48.214;11.350;2023-03-26T05:15:40;5.83;;;2.20;;
1024;SDS011;501;48.214;11.350;2023-03-26T05:18:05;7.27;;;1.40;;
1024;SDS011;501;48.214;11.350;2023-03-26T05:20:32;10.43;;;1.60;;
1024;SDS011;501;48.214;11.350;2023-03-26T05:22:58;1.93;;;1.50;;
1024;SDS011;501;48.214;11.350;2023-03-26T05:25:24;1.50;;;1.20;;
1024;SDS011;501;48.214;11.350;2023-03-26T05:27:50;4.03;;;1.43;;
1024;SDS011;501;48.214;11.350;2023-03-26T05:30:17;3.33;;;1.27;;
1024;SDS011;501;48.214;11.350;2023-03-26T05:32:45;3.53;;;1.30;;
1024;SDS011;501;48.214;11.350;2023-03-26T05:35:12;2.73;;;1.57;;
1024;SDS011;501;48.214;11.350;2023-03-26T05:37:40;4.97;;;1.60;;
1024;SDS011;501;48.214;11.350;2023-03-26T05:40:09;3.80;;;1.40;;
1024;SDS011;501;48.214;11.350;2023-03-26T05:42:36;6.57;;;2.07;;
1024;SDS011;501;48.214;11.350;2023-03-26T05:45:03;2.23;;;1.20;;
1024;SDS011;501;48.214;11.350;2023-03-26T05:47:31;2.60;;;1.40;;
1024;SDS011;501;48.214;11.350;2023-03-26T05:49:56;2.20;;;1.33;;
1024;SDS011;501;48.214;11.350;2023-03-26T05:52:23;5.90;;;2.27;;
1024;SDS011;501;48.214;11.350;2023-03-26T05:54:48;4.43;;;1.70;;
1024;SDS011;501;48.214;11.350;2023-03-26T05:57:14;3.20;;;1.83;;
1024;SDS011;501;48.214;11.350;2023-03-26T05:59:40;3.50;;;2.00;;
1024;SDS011;501;48.214;11.350;2023-03-26T06:02:06;2.03;;;1.37;;
1024;SDS011;501;48.214;11.350;2023-03-26T06:04:33;1.43;;;1.33;;
1024;SDS011;501;48.214;11.350;2023-03-26T06:06:58;2.90;;;1.60;;
1024;SDS011;501;48.214;11.350;2023-03-26T06:09:25;4.70;;;1.70;;
1024;SDS011;501;48.214;11.350;2023-03-26T06:11:51;5.80;;;1.70;;
1024;SDS011;501;48.214;11.350;2023-03-26T06:14:17;2.53;;;1.70;;
1024;SDS011;501;48.214;11.350;2023-03-26T06:16:42;4.37;;;1.87;;
1024;SDS011;501;48.214;11.350;2023-03-26T06:19:08;5.20;;;2.00;;
1024;SDS011;501;48.214;11.350;2023-03-26T06:21:34;1.57;;;1.37;;
1024;SDS011;501;48.214;11.350;2023-03-26T06:24:00;2.60;;;1.53;;
1024;SDS011;501;48.214;11.350;2023-03-26T06:26:25;1.70;;;1.60;;
1024;SDS011;501;48.214;11.350;2023-03-26T06:28:51;3.40;;;1.77;;
1024;SDS011;501;48.214;11.350;2023-03-26T06:31:16;4.80;;;1.57;;
1024;SDS011;501;48.214;11.350;2023-03-26T06:33:43;7.20;;;2.03;;
1024;SDS011;501;48.214;11.350;2023-03-26T06:36:08;1.83;;;1.40;;
1024;SDS011;501;48.214;11.350;2023-03-26T06:38:34;7.03;;;2.63;;
1024;SDS011;501;48.214;11.350;2023-03-26T06:41:03;7.30;;;1.63;;
1024;SDS011;501;48.214;11.350;2023-03-26T06:43:30;3.07;;;1.60;;
1024;SDS011;501;48.214;11.350;2023-03-26T06:46:00;3.97;;;1.17;;
1024;SDS011;501;48.214;11.350;2023-03-26T06:48:26;1.27;;;1.17;;
1024;SDS011;501;48.214;11.350;2023-03-26T06:50:52;3.67;;;1.40;;
1024;SDS011;501;48.214;11.350;2023-03-26T06:53:18;2.50;;;1.20;;
1024;SDS011;501;48.214;11.350;2023-03-26T06:55:44;3.27;;;1.40;;
1024;SDS011;501;48.214;11.350;2023-03-26T06:58:10;4.40;;;1.57;;
1024;SDS011;501;48.214;11.350;2023-03-26T07:00:36;4.37;;;1.43;;
1024;SDS011;501;48.214;11.350;2023-03-26T07:03:03;2.40;;;1.80;;
1024;SDS011;501;48.214;11.350;2023-03-26T07:05:29;1.87;;;1.60;;
1024;SDS011;501;48.214;11.350;2023-03-26T07:07:55;4.63;;;1.67;;
1024;SDS011;501;48.214;11.350;2023-03-26T07:10:20;4.23;;;1.20;;
1024;SDS011;501;48.214;11.350;2023-03-26T07:12:46;2.53;;;1.23;;
1024;SDS011;501;48.214;11.350;2023-03-26T07:15:12;5.83;;;1.43;;
1024;SDS011;501;48.214;11.350;2023-03-26T07:17:37;1.80;;;1.00;;
1024;SDS011;501;48.214;11.350;2023-03-26T07:20:04;2.20;;;1.53;;
1024;SDS011;501;48.214;11.350;2023-03-26T07:22:32;1.80;;;1.10;;
1024;SDS011;501;48.214;11.350;2023-03-26T07:24:58;3.17;;;1.67;;
1024;SDS011;501;48.214;11.350;2023-03-26T07:30:07;2.13;;;1.40;;
1024;SDS011;501;48.214;11.350;2023-03-26T07:35:52;3.77;;;1.90;;
1024;SDS011;501;48.214;11.350;2023-03-26T07:38:31;1.50;;;1.00;;
1024;SDS011;501;48.214;11.350;2023-03-26T07:46:49;2.90;;;1.50;;
1024;SDS011;501;48.214;11.350;2023-03-26T07:49:17;7.60;;;1.80;;
1024;SDS011;501;48.214;11.350;2023-03-26T07:51:44;5.43;;;1.87;;
1024;SDS011;501;48.214;11.350;2023-03-26T07:54:11;6.60;;;1.40;;
1024;SDS011;501;48.214;11.350;2023-03-26T08:10:36;11.00;;;1.60;;
1024;SDS011;501;48.214;11.350;2023-03-26T08:16:02;5.87;;;1.83;;
1024;SDS011;501;48.214;11.350;2023-03-26T08:21:15;3.50;;;1.93;;
1024;SDS011;501;48.214;11.350;2023-03-26T08:32:26;3.97;;;2.33;;
1024;SDS011;501;48.214;11.350;2023-03-26T08:34:52;2.80;;;1.63;;
1024;SDS011;501;48.214;11.350;2023-03-26T08:37:18;1.60;;;1.43;;
1024;SDS011;501;48.214;11.350;2023-03-26T08:39:44;2.80;;;1.47;;
1024;SDS011;501;48.214;11.350;2023-03-26T08:45:07;5.87;;;2.80;;
1024;SDS011;501;48.214;11.350;2023-03-26T08:53:26;3.53;;;2.00;;
1024;SDS011;501;48.214;11.350;2023-03-26T08:55:56;3.33;;;1.33;;
1024;SDS011;501;48.214;11.350;2023-03-26T08:58:53;5.63;;;2.00;;
1024;SDS011;501;48.214;11.350;2023-03-26T09:04:31;3.00;;;2.43;;
1024;SDS011;501;48.214;11.350;2023-03-26T09:16:14;5.47;;;2.97;;
1024;SDS011;501;48.214;11.350;2023-03-26T09:24:50;2.47;;;1.80;;
1024;SDS011;501;48.214;11.350;2023-03-26T09:27:38;6.90;;;2.13;;
1024;SDS011;501;48.214;11.350;2023-03-26T09:38:28;3.93;;;1.90;;
1024;SDS011;501;48.214;11.350;2023-03-26T09:41:02;3.13;;;1.70;;
1024;SDS011;501;48.214;11.350;2023-03-26T09:44:31;3.87;;;3.00;;
1024;SDS011;501;48.214;11.350;2023-03-26T09:52:36;2.03;;;1.10;;
1024;SDS011;501;48.214;11.350;2023-03-26T10:06:01;3.00;;;1.57;;
1024;SDS011;501;48.214;11.350;2023-03-26T10:09:35;4.80;;;1.73;;
1024;SDS011;501;48.214;11.350;2023-03-26T10:14:17;4.47;;;1.80;;
1024;SDS011;501;48.214;11.350;2023-03-26T10:22:33;5.63;;;2.50;;
1024;SDS011;501;48.214;11.350;2023-03-26T10:25:21;4.70;;;2.00;;
1024;SDS011;501;48.214;11.350;2023-03-26T10:31:06;2.47;;;1.57;;
1024;SDS011;501;48.214;11.350;2023-03-26T10:33:38;2.53;;;1.53;;
1024;SDS011;501;48.214;11.350;2023-03-26T10:36:30;4.70;;;2.00;;
1024;SDS011;501;48.214;11.350;2023-03-26T10:42:05;8.60;;;2.80;;
1024;SDS011;501;48.214;11.350;2023-03-26T10:47:38;2.90;;;1.60;;
1024;SDS011;501;48.214;11.350;2023-03-26T10:53:48;3.80;;;1.90;;
1024;SDS011;501;48.214;11.350;2023-03-26T10:59:19;5.43;;;2.70;;
1024;SDS011;501;48.214;11.350;2023-03-26T11:04:20;2.30;;;1.57;;
1024;SDS011;501;48.214;11.350;2023-03-26T11:07:01;4.10;;;1.80;;
1024;SDS011;501;48.214;11.350;2023-03-26T11:10:08;3.33;;;2.03;;
1024;SDS011;501;48.214;11.350;2023-03-26T11:15:37;2.27;;;1.67;;
1024;SDS011;501;48.214;11.350;2023-03-26T11:21:23;1.70;;;1.33;;
1024;SDS011;501;48.214;11.350;2023-03-26T11:32:25;1.43;;;1.07;;
1024;SDS011;501;48.214;11.350;2023-03-26T11:37:39;1.47;;;0.80;;
1024;SDS011;501;48.214;11.350;2023-03-26T11:40:15;1.43;;;1.00;;
1024;SDS011;501;48.214;11.350;2023-03-26T11:42:48;2.53;;;0.93;;
1024;SDS011;501;48.214;11.350;2023-03-26T11:45:18;1.10;;;1.00;;
1024;SDS011;501;48.214;11.350;2023-03-26T11:48:02;1.13;;;0.70;;
1024;SDS011;501;48.214;11.350;2023-03-26T11:50:45;0.70;;;0.70;;
1024;SDS011;501;48.214;11.350;2023-03-26T11:53:14;1.30;;;0.77;;
1024;SDS011;501;48.214;11.350;2023-03-26T11:55:46;0.70;;;0.70;;
1024;SDS011;501;48.214;11.350;2023-03-26T12:01:28;0.80;;;0.50;;
1024;SDS011;501;48.214;11.350;2023-03-26T12:04:26;0.60;;;0.53;;
1024;SDS011;501;48.214;11.350;2023-03-26T12:06:57;0.70;;;0.50;;
1024;SDS011;501;48.214;11.350;2023-03-26T12:09:47;0.53;;;0.53;;
1024;SDS011;501;48.214;11.350;2023-03-26T12:12:17;1.23;;;0.60;;
1024;SDS011;501;48.214;11.350;2023-03-26T12:14:44;0.50;;;0.43;;
1024;SDS011;501;48.214;11.350;2023-03-26T12:17:12;1.00;;;0.40;;
1024;SDS011;501;48.214;11.350;2023-03-26T12:19:48;1.07;;;0.60;;
1024;SDS011;501;48.214;11.350;2023-03-26T12:22:31;1.83;;;0.60;;
1024;SDS011;501;48.214;11.350;2023-03-26T12:25:14;1.33;;;0.90;;
1024;SDS011;501;48.214;11.350;2023-03-26T12:27:42;0.97;;;0.53;;
1024;SDS011;501;48.214;11.350;2023-03-26T12:30:21;1.53;;;0.63;;
1024;SDS011;501;48.214;11.350;2023-03-26T12:32:50;0.60;;;0.60;;
1024;SDS011;501;48.214;11.350;2023-03-26T12:35:23;0.80;;;0.77;;
1024;SDS011;501;48.214;11.350;2023-03-26T12:37:51;1.43;;;0.70;;
1024;SDS011;501;48.214;11.350;2023-03-26T12:40:26;1.00;;;0.80;;
1024;SDS011;501;48.214;11.350;2023-03-26T12:42:55;2.30;;;1.10;;
1024;SDS011;501;48.214;11.350;2023-03-26T12:45:29;1.20;;;1.00;;
1024;SDS011;501;48.214;11.350;2023-03-26T12:48:03;1.67;;;1.07;;
1024;SDS011;501;48.214;11.350;2023-03-26T12:50:34;1.63;;;1.20;;
1024;SDS011;501;48.214;11.350;2023-03-26T12:55:57;3.30;;;1.40;;
1024;SDS011;501;48.214;11.350;2023-03-26T13:12:42;1.40;;;1.17;;
1024;SDS011;501;48.214;11.350;2023-03-26T13:15:34;1.47;;;1.10;;
1024;SDS011;501;48.214;11.350;2023-03-26T13:23:43;1.40;;;1.30;;
1024;SDS011;501;48.214;11.350;2023-03-26T13:29:11;0.83;;;0.83;;
1024;SDS011;501;48.214;11.350;2023-03-26T13:37:42;0.30;;;0.30;;
1024;SDS011;501;48.214;11.350;2023-03-26T13:48:19;0.60;;;0.47;;
1024;SDS011;501;48.214;11.350;2023-03-26T13:53:49;0.50;;;0.50;;
1024;SDS011;501;48.214;11.350;2023-03-26T13:56:39;0.50;;;0.30;;
1024;SDS011;501;48.214;11.350;2023-03-26T13:59:13;1.40;;;0.67;;
1024;SDS011;501;48.214;11.350;2023-03-26T14:01:57;1.10;;;0.60;;
1024;SDS011;501;48.214;11.350;2023-03-26T14:04:32;0.67;;;0.40;;
1024;SDS011;501;48.214;11.350;2023-03-26T14:07:14;0.40;;;0.40;;
1024;SDS011;501;48.214;11.350;2023-03-26T14:15:46;1.00;;;0.53;;
1024;SDS011;501;48.214;11.350;2023-03-26T14:23:52;0.60;;;0.50;;
1024;SDS011;501;48.214;11.350;2023-03-26T14:40:09;2.83;;;0.80;;
1024;SDS011;501;48.214;11.350;2023-03-26T14:53:37;1.57;;;1.37;;
1024;SDS011;501;48.214;11.350;2023-03-26T15:01:48;1.37;;;1.27;;
1024;SDS011;501;48.214;11.350;2023-03-26T15:39:39;3.20;;;2.17;;
1024;SDS011;501;48.214;11.350;2023-03-26T15:44:50;5.00;;;3.63;;
1024;SDS011;501;48.214;11.350;2023-03-26T15:52:53;2.67;;;1.37;;
1024;SDS011;501;48.214;11.350;2023-03-26T15:55:49;2.30;;;1.20;;
1024;SDS011;501;48.214;11.350;2023-03-26T15:58:48;0.93;;;0.80;;
1024;SDS011;501;48.214;11.350;2023-03-26T16:01:51;2.13;;;1.10;;
1024;SDS011;501;48.214;11.350;2023-03-26T16:04:50;4.93;;;1.00;;
1024;SDS011;501;48.214;11.350;2023-03-26T16:16:16;1.53;;;0.60;;
1024;SDS011;501;48.214;11.350;2023-03-26T16:18:36;0.90;;;0.70;;
1024;SDS011;501;48.214;11.350;2023-03-26T16:37:25;1.53;;;0.90;;
1024;SDS011;501;48.214;11.350;2023-03-26T16:45:36;1.77;;;1.13;;
1024;SDS011;501;48.214;11.350;2023-03-26T16:51:39;2.00;;;0.70;;
1024;SDS011;501;48.214;11.350;2023-03-26T16:57:15;1.13;;;0.90;;
1024;SDS011;501;48.214;11.350;2023-03-26T17:07:51;1.17;;;0.80;;
1024;SDS011;501;48.214;11.350;2023-03-26T17:10:35;0.70;;;0.70;;
1024;SDS011;501;48.214;11.350;2023-03-26T17:13:27;2.70;;;0.70;;
1024;SDS011;501;48.214;11.350;2023-03-26T17:26:22;1.00;;;0.80;;
1024;SDS011;501;48.214;11.350;2023-03-26T17:29:27;0.80;;;0.80;;
1024;SDS011;501;48.214;11.350;2023-03-26T17:32:13;3.30;;;0.83;;
1024;SDS011;501;48.214;11.350;2023-03-26T17:35:00;1.00;;;0.70;;
1024;SDS011;501;48.214;11.350;2023-03-26T17:37:31;1.00;;;0.90;;
1024;SDS011;501;48.214;11.350;2023-03-26T17:42:36;0.77;;;0.70;;
1024;SDS011;501;48.214;11.350;2023-03-26T17:50:34;0.80;;;0.80;;
1024;SDS011;501;48.214;11.350;2023-03-26T17:53:18;0.97;;;0.80;;
1024;SDS011;501;48.214;11.350;2023-03-26T17:55:51;1.70;;;1.33;;
1024;SDS011;501;48.214;11.350;2023-03-26T17:58:27;1.33;;;1.23;;
1024;SDS011;501;48.214;11.350;2023-03-26T18:01:41;1.20;;;1.10;;
1024;SDS011;501;48.214;11.350;2023-03-26T18:03:51;0.97;;;0.80;;
1024;SDS011;501;48.214;11.350;2023-03-26T18:06:34;0.70;;;0.70;;
1024;SDS011;501;48.214;11.350;2023-03-26T18:17:47;1.70;;;0.80;;
1024;SDS011;501;48.214;11.350;2023-03-26T18:20:23;2.50;;;0.90;;
1024;SDS011;501;48.214;11.350;2023-03-26T18:22:52;7.60;;;1.63;;
1024;SDS011;501;48.214;11.350;2023-03-26T18:25:20;0.97;;;0.53;;
1024;SDS011;501;48.214;11.350;2023-03-26T18:27:49;0.87;;;0.77;;
1024;SDS011;501;48.214;11.350;2023-03-26T18:30:19;2.93;;;0.70;;
1024;SDS011;501;48.214;11.350;2023-03-26T18:32:52;1.07;;;0.60;;
1024;SDS011;501;48.214;11.350;2023-03-26T18:36:02;0.60;;;0.60;;
1024;SDS011;501;48.214;11.350;2023-03-26T18:38:21;0.60;;;0.60;;
1024;SDS011;501;48.214;11.350;2023-03-26T18:40:48;0.53;;;0.53;;
1024;SDS011;501;48.214;11.350;2023-03-26T18:43:18;1.53;;;0.70;;
1024;SDS011;501;48.214;11.350;2023-03-26T18:45:46;0.80;;;0.70;;
1024;SDS011;501;48.214;11.350;2023-03-26T18:48:18;1.03;;;0.63;;
1024;SDS011;501;48.214;11.350;2023-03-26T18:50:47;1.10;;;0.60;;
1024;SDS011;501;48.214;11.350;2023-03-26T18:53:18;1.00;;;0.63;;
1024;SDS011;501;48.214;11.350;2023-03-26T18:55:53;0.80;;;0.70;;
1024;SDS011;501;48.214;11.350;2023-03-26T18:58:31;0.93;;;0.70;;
1024;SDS011;501;48.214;11.350;2023-03-26T19:03:32;0.80;;;0.53;;
1024;SDS011;501;48.214;11.350;2023-03-26T19:06:00;0.60;;;0.60;;
1024;SDS011;501;48.214;11.350;2023-03-26T19:08:29;0.63;;;0.50;;
1024;SDS011;501;48.214;11.350;2023-03-26T19:10:56;1.00;;;0.57;;
1024;SDS011;501;48.214;11.350;2023-03-26T19:13:26;0.60;;;0.60;;
1024;SDS011;501;48.214;11.350;2023-03-26T19:15:52;1.43;;;1.33;;
1024;SDS011;501;48.214;11.350;2023-03-26T19:18:21;1.20;;;0.80;;
1024;SDS011;501;48.214;11.350;2023-03-26T19:20:53;1.13;;;0.67;;
1024;SDS011;501;48.214;11.350;2023-03-26T19:23:22;0.93;;;0.87;;
1024;SDS011;501;48.214;11.350;2023-03-26T19:25:55;0.93;;;0.63;;
1024;SDS011;501;48.214;11.350;2023-03-26T19:30:53;1.00;;;0.97;;
1024;SDS011;501;48.214;11.350;2023-03-26T19:33:21;1.77;;;0.90;;
1024;SDS011;501;48.214;11.350;2023-03-26T19:36:31;1.83;;;1.40;;
1024;SDS011;501;48.214;11.350;2023-03-26T19:38:41;0.83;;;0.70;;
1024;SDS011;501;48.214;11.350;2023-03-26T19:41:21;0.83;;;0.80;;
1024;SDS011;501;48.214;11.350;2023-03-26T19:43:55;1.63;;;0.70;;
1024;SDS011;501;48.214;11.350;2023-03-26T19:46:24;1.33;;;0.90;;
1024;SDS011;501;48.214;11.350;2023-03-26T19:48:52;1.53;;;1.10;;
1024;SDS011;501;48.214;11.350;2023-03-26T19:51:21;1.10;;;1.10;;
1024;SDS011;501;48.214;11.350;2023-03-26T19:54:11;1.13;;;1.03;;
1024;SDS011;501;48.214;11.350;2023-03-26T19:56:39;0.70;;;0.70;;
1024;SDS011;501;48.214;11.350;2023-03-26T19:59:05;1.67;;;1.10;;
1024;SDS011;501;48.214;11.350;2023-03-26T20:01:31;1.37;;;0.90;;
1024;SDS011;501;48.214;11.350;2023-03-26T20:04:01;1.30;;;1.10;;
1024;SDS011;501;48.214;11.350;2023-03-26T20:06:30;0.73;;;0.70;;
1024;SDS011;501;48.214;11.350;2023-03-26T20:08:57;0.60;;;0.60;;
1024;SDS011;501;48.214;11.350;2023-03-26T20:11:28;2.47;;;0.80;;
1024;SDS011;501;48.214;11.350;2023-03-26T20:14:00;0.90;;;0.70;;
1024;SDS011;501;48.214;11.350;2023-03-26T20:16:29;0.73;;;0.70;;
1024;SDS011;501;48.214;11.350;2023-03-26T20:18:57;0.80;;;0.80;;
1024;SDS011;501;48.214;11.350;2023-03-26T20:21:28;0.60;;;0.50;;
1024;SDS011;501;48.214;11.350;2023-03-26T20:23:56;0.80;;;0.80;;
1024;SDS011;501;48.214;11.350;2023-03-26T20:26:23;0.70;;;0.70;;
1024;SDS011;501;48.214;11.350;2023-03-26T20:28:49;0.97;;;0.80;;
1024;SDS011;501;48.214;11.350;2023-03-26T20:31:20;0.70;;;0.60;;
1024;SDS011;501;48.214;11.350;2023-03-26T20:33:51;1.20;;;0.83;;
1024;SDS011;501;48.214;11.350;2023-03-26T20:36:17;1.20;;;0.57;;
1024;SDS011;501;48.214;11.350;2023-03-26T20:38:44;1.40;;;0.90;;
1024;SDS011;501;48.214;11.350;2023-03-26T20:41:11;0.40;;;0.40;;
1024;SDS011;501;48.214;11.350;2023-03-26T20:43:38;1.70;;;0.73;;
1024;SDS011;501;48.214;11.350;2023-03-26T20:46:04;0.67;;;0.50;;
1024;SDS011;501;48.214;11.350;2023-03-26T20:48:30;0.70;;;0.60;;
1024;SDS011;501;48.214;11.350;2023-03-26T20:50:56;1.10;;;0.90;;
1024;SDS011;501;48.214;11.350;2023-03-26T20:53:22;3.13;;;0.97;;
1024;SDS011;501;48.214;11.350;2023-03-26T20:55:48;1.70;;;0.73;;
1024;SDS011;501;48.214;11.350;2023-03-26T20:58:15;0.87;;;0.60;;
1024;SDS011;501;48.214;11.350;2023-03-26T21:00:46;1.73;;;0.73;;
1024;SDS011;501;48.214;11.350;2023-03-26T21:03:13;0.77;;;0.60;;
1024;SDS011;501;48.214;11.350;2023-03-26T21:05:41;0.70;;;0.70;;
1024;SDS011;501;48.214;11.350;2023-03-26T21:08:12;0.77;;;0.57;;
1024;SDS011;501;48.214;11.350;2023-03-26T21:10:40;0.90;;;0.63;;
1024;SDS011;501;48.214;11.350;2023-03-26T21:16:11;0.70;;;0.50;;
1024;SDS011;501;48.214;11.350;2023-03-26T21:18:38;0.60;;;0.60;;
1024;SDS011;501;48.214;11.350;2023-03-26T21:23:44;0.63;;;0.57;;
1024;SDS011;501;48.214;11.350;2023-03-26T21:28:54;0.70;;;0.70;;
1024;SDS011;501;48.214;11.350;2023-03-26T21:31:21;1.73;;;0.60;;
1024;SDS011;501;48.214;11.350;2023-03-26T21:33:48;0.77;;;0.50;;
1024;SDS011;501;48.214;11.350;2023-03-26T21:36:15;0.53;;;0.53;;
1024;SDS011;501;48.214;11.350;2023-03-26T21:38:44;1.03;;;0.60;;
1024;SDS011;501;48.214;11.350;2023-03-26T21:41:24;1.20;;;0.80;;
1024;SDS011;501;48.214;11.350;2023-03-26T21:43:59;0.70;;;0.60;;
1024;SDS011;501;48.214;11.350;2023-03-26T21:46:26;0.53;;;0.53;;
1024;SDS011;501;48.214;11.350;2023-03-26T21:48:52;0.73;;;0.63;;
1024;SDS011;501;48.214;11.350;2023-03-26T21:51:18;1.07;;;0.70;;
1024;SDS011;501;48.214;11.350;2023-03-26T21:53:45;0.60;;;0.50;;